createdAt,value
2019-03-03T00:00:19.995Z,0
2019-03-03T00:01:20.220Z,0
2019-03-03T00:02:20.459Z,0
2019-03-03T00:03:20.440Z,0
2019-03-03T00:04:20.428Z,0
2019-03-03T00:05:20.408Z,0
2019-03-03T00:06:20.147Z,0
2019-03-03T00:07:20.380Z,0
2019-03-03T00:08:20.374Z,0
2019-03-03T00:09:20.351Z,0
2019-03-03T00:10:20.338Z,0
2019-03-03T00:11:20.318Z,0
2019-03-03T00:12:20.308Z,0
2019-03-03T00:13:20.049Z,0
2019-03-03T00:14:20.039Z,0
2019-03-03T00:15:20.026Z,0
2019-03-03T00:16:20.006Z,0
2019-03-03T00:17:20.238Z,0
2019-03-03T00:18:19.979Z,0
2019-03-03T00:19:20.218Z,0
2019-03-03T00:20:19.945Z,0
2019-03-03T00:21:20.180Z,0
2019-03-03T00:22:19.690Z,0
2019-03-03T00:23:19.902Z,0
2019-03-03T00:24:20.134Z,0
2019-03-03T00:25:19.887Z,0
2019-03-03T00:26:19.876Z,0
2019-03-03T00:27:20.092Z,0
2019-03-03T00:28:20.091Z,0
2019-03-03T00:29:20.065Z,0
2019-03-03T00:30:20.050Z,0
2019-03-03T00:31:20.043Z,0
2019-03-03T00:32:19.817Z,0
2019-03-03T00:33:19.538Z,0
2019-03-03T00:34:19.989Z,0
2019-03-03T00:35:19.732Z,0
2019-03-03T00:36:19.974Z,0
2019-03-03T00:37:19.946Z,0
2019-03-03T00:38:20.176Z,0
2019-03-03T00:39:19.926Z,0
2019-03-03T00:40:19.903Z,0
2019-03-03T00:41:19.633Z,0
2019-03-03T00:42:19.870Z,0
2019-03-03T00:43:19.863Z,0
2019-03-03T00:44:19.838Z,0
2019-03-03T00:45:19.825Z,0
2019-03-03T00:46:19.565Z,0
2019-03-03T00:47:19.794Z,0
2019-03-03T00:48:19.293Z,0
2019-03-03T00:49:19.774Z,0
2019-03-03T00:50:19.765Z,0
2019-03-03T00:51:19.743Z,0
2019-03-03T00:52:21.382Z,0
2019-03-03T00:53:19.709Z,0
2019-03-03T00:54:19.695Z,0
2019-03-03T00:55:19.688Z,0
2019-03-03T00:56:19.670Z,0
2019-03-03T00:57:19.404Z,0
2019-03-03T00:58:19.652Z,0
2019-03-03T00:59:19.624Z,0
2019-03-03T01:00:19.610Z,0
2019-03-03T01:01:19.348Z,0
2019-03-03T01:02:19.581Z,0
2019-03-03T01:03:19.320Z,0
2019-03-03T01:04:19.550Z,0
2019-03-03T01:05:19.537Z,0
2019-03-03T01:06:19.524Z,0
2019-03-03T01:07:19.512Z,0
2019-03-03T01:08:19.499Z,0
2019-03-03T01:09:19.234Z,0
2019-03-03T01:10:19.463Z,0
2019-03-03T01:11:19.453Z,0
2019-03-03T01:12:19.433Z,0
2019-03-03T01:13:19.419Z,0
2019-03-03T01:14:18.917Z,0
2019-03-03T01:15:19.399Z,0
2019-03-03T01:16:19.385Z,0
2019-03-03T01:17:19.372Z,0
2019-03-03T01:18:19.254Z,0
2019-03-03T01:19:19.339Z,0
2019-03-03T01:20:19.324Z,0
2019-03-03T01:21:19.302Z,0
2019-03-03T01:22:19.051Z,0
2019-03-03T01:23:19.278Z,0
2019-03-03T01:24:19.264Z,0
2019-03-03T01:25:19.002Z,0
2019-03-03T01:26:18.742Z,0
2019-03-03T01:27:19.218Z,0
2019-03-03T01:28:19.210Z,0
2019-03-03T01:29:19.191Z,0
2019-03-03T01:30:19.177Z,0
2019-03-03T01:31:19.157Z,0
2019-03-03T01:32:19.145Z,0
2019-03-03T01:33:19.135Z,0
2019-03-03T01:34:18.879Z,0
2019-03-03T01:35:18.862Z,0
2019-03-03T01:36:19.094Z,0
2019-03-03T01:37:19.074Z,0
2019-03-03T01:38:19.061Z,0
2019-03-03T01:39:19.040Z,0
2019-03-03T01:40:19.040Z,0
2019-03-03T01:41:18.777Z,0
2019-03-03T01:42:18.527Z,0
2019-03-03T01:43:18.747Z,0
2019-03-03T01:44:18.980Z,0
2019-03-03T01:45:18.964Z,0
2019-03-03T01:46:18.952Z,0
2019-03-03T01:47:18.936Z,0
2019-03-03T01:48:18.419Z,0
2019-03-03T01:49:18.665Z,0
2019-03-03T01:50:18.649Z,0
2019-03-03T01:51:18.631Z,0
2019-03-03T01:52:18.920Z,0
2019-03-03T01:53:18.595Z,0
2019-03-03T01:54:18.581Z,0
2019-03-03T01:55:18.814Z,0
2019-03-03T01:56:18.802Z,0
2019-03-03T01:57:18.794Z,0
2019-03-03T01:58:18.534Z,0
2019-03-03T01:59:18.518Z,0
2019-03-03T02:00:18.748Z,0
2019-03-03T02:01:18.518Z,0
2019-03-03T02:02:18.710Z,0
2019-03-03T02:03:18.214Z,0
2019-03-03T02:04:18.680Z,0
2019-03-03T02:05:18.664Z,0
2019-03-03T02:06:18.662Z,0
2019-03-03T02:07:18.644Z,0
2019-03-03T02:08:18.628Z,0
2019-03-03T02:09:18.618Z,0
2019-03-03T02:10:18.348Z,0
2019-03-03T02:11:18.589Z,0
2019-03-03T02:12:17.849Z,0
2019-03-03T02:13:18.566Z,0
2019-03-03T02:14:18.540Z,0
2019-03-03T02:15:18.529Z,0
2019-03-03T02:16:18.518Z,0
2019-03-03T02:17:18.503Z,0
2019-03-03T02:18:18.491Z,0
2019-03-03T02:19:18.229Z,0
2019-03-03T02:20:18.455Z,0
2019-03-03T02:21:18.440Z,0
2019-03-03T02:22:18.426Z,0
2019-03-03T02:23:18.418Z,0
2019-03-03T02:24:18.399Z,0
2019-03-03T02:25:18.136Z,0
2019-03-03T02:26:18.373Z,0
2019-03-03T02:27:18.358Z,0
2019-03-03T02:28:18.346Z,0
2019-03-03T02:29:18.479Z,0
2019-03-03T02:30:18.073Z,0
2019-03-03T02:31:18.068Z,0
2019-03-03T02:32:18.099Z,0
2019-03-03T02:33:18.285Z,0
2019-03-03T02:34:18.277Z,0
2019-03-03T02:35:18.009Z,0
2019-03-03T02:36:18.257Z,0
2019-03-03T02:37:17.992Z,0
2019-03-03T02:38:18.214Z,0
2019-03-03T02:39:18.209Z,0
2019-03-03T02:40:18.213Z,0
2019-03-03T02:41:17.923Z,0
2019-03-03T02:42:18.152Z,0
2019-03-03T02:43:18.134Z,0
2019-03-03T02:44:18.133Z,0
2019-03-03T02:45:18.150Z,0
2019-03-03T02:46:18.099Z,0
2019-03-03T02:47:18.084Z,0
2019-03-03T02:48:18.061Z,0
2019-03-03T02:49:18.054Z,0
2019-03-03T02:50:18.091Z,0
2019-03-03T02:51:17.811Z,0
2019-03-03T02:52:17.774Z,0
2019-03-03T02:53:17.992Z,0
2019-03-03T02:54:17.989Z,0
2019-03-03T02:55:17.977Z,0
2019-03-03T02:56:17.953Z,0
2019-03-03T02:57:17.944Z,0
2019-03-03T02:58:17.926Z,0
2019-03-03T02:59:17.912Z,0
2019-03-03T03:00:17.678Z,0
2019-03-03T03:01:17.893Z,0
2019-03-03T03:02:17.871Z,0
2019-03-03T03:03:17.451Z,0
2019-03-03T03:04:17.984Z,0
2019-03-03T03:05:17.828Z,0
2019-03-03T03:06:17.814Z,0
2019-03-03T03:07:17.803Z,0
2019-03-03T03:08:17.782Z,0
2019-03-03T03:09:17.519Z,0
2019-03-03T03:10:17.773Z,0
2019-03-03T03:11:17.749Z,0
2019-03-03T03:12:17.720Z,0
2019-03-03T03:13:17.484Z,0
2019-03-03T03:14:17.711Z,0
2019-03-03T03:15:17.683Z,0
2019-03-03T03:16:17.682Z,0
2019-03-03T03:17:17.415Z,0
2019-03-03T03:18:17.406Z,0
2019-03-03T03:19:17.397Z,0
2019-03-03T03:20:17.628Z,0
2019-03-03T03:21:17.608Z,0
2019-03-03T03:22:17.596Z,0
2019-03-03T03:23:17.576Z,0
2019-03-03T03:24:17.116Z,0
2019-03-03T03:25:17.537Z,0
2019-03-03T03:26:17.280Z,0
2019-03-03T03:27:17.264Z,0
2019-03-03T03:28:17.545Z,0
2019-03-03T03:29:17.244Z,0
2019-03-03T03:30:17.591Z,0
2019-03-03T03:31:17.477Z,0
2019-03-03T03:32:17.491Z,0
2019-03-03T03:33:17.450Z,0
2019-03-03T03:34:17.451Z,0
2019-03-03T03:35:17.156Z,0
2019-03-03T03:36:17.401Z,0
2019-03-03T03:37:17.403Z,0
2019-03-03T03:38:17.359Z,0
2019-03-03T03:39:16.871Z,0
2019-03-03T03:40:17.338Z,0
2019-03-03T03:41:17.322Z,0
2019-03-03T03:42:17.307Z,0
2019-03-03T03:43:17.299Z,0
2019-03-03T03:44:16.802Z,0
2019-03-03T03:45:17.017Z,0
2019-03-03T03:46:17.252Z,0
2019-03-03T03:47:17.243Z,0
2019-03-03T03:48:17.235Z,0
2019-03-03T03:49:17.202Z,0
2019-03-03T03:50:16.970Z,0
2019-03-03T03:51:16.683Z,0
2019-03-03T03:52:16.917Z,0
2019-03-03T03:53:17.148Z,0
2019-03-03T03:54:17.144Z,0
2019-03-03T03:55:17.132Z,0
2019-03-03T03:56:17.132Z,0
2019-03-03T03:57:17.094Z,0
2019-03-03T03:58:17.082Z,0
2019-03-03T03:59:17.073Z,0
2019-03-03T04:00:16.823Z,0
2019-03-03T04:01:17.045Z,0
2019-03-03T04:02:17.028Z,0
2019-03-03T04:03:17.018Z,0
2019-03-03T04:04:17.045Z,0
2019-03-03T04:05:16.991Z,0
2019-03-03T04:06:16.724Z,0
2019-03-03T04:07:16.953Z,0
2019-03-03T04:08:16.948Z,0
2019-03-03T04:09:16.921Z,0
2019-03-03T04:10:16.999Z,0
2019-03-03T04:11:16.978Z,0
2019-03-03T04:12:16.894Z,0
2019-03-03T04:13:16.886Z,0
2019-03-03T04:14:16.858Z,0
2019-03-03T04:15:16.848Z,0
2019-03-03T04:16:16.884Z,0
2019-03-03T04:17:16.808Z,0
2019-03-03T04:18:16.823Z,0
2019-03-03T04:19:16.786Z,0
2019-03-03T04:20:16.759Z,0
2019-03-03T04:21:16.757Z,0
2019-03-03T04:22:16.735Z,0
2019-03-03T04:23:16.721Z,0
2019-03-03T04:24:16.733Z,0
2019-03-03T04:25:16.691Z,0
2019-03-03T04:26:16.672Z,0
2019-03-03T04:27:16.412Z,0
2019-03-03T04:28:16.650Z,0
2019-03-03T04:29:16.640Z,0
2019-03-03T04:30:16.629Z,0
2019-03-03T04:31:16.609Z,0
2019-03-03T04:32:16.581Z,0
2019-03-03T04:33:16.573Z,0
2019-03-03T04:34:17.496Z,0
2019-03-03T04:35:16.312Z,0
2019-03-03T04:36:16.541Z,0
2019-03-03T04:37:16.521Z,0
2019-03-03T04:38:16.497Z,0
2019-03-03T04:39:16.239Z,0
2019-03-03T04:40:16.478Z,0
2019-03-03T04:41:15.969Z,0
2019-03-03T04:42:16.443Z,0
2019-03-03T04:43:16.429Z,0
2019-03-03T04:44:16.428Z,0
2019-03-03T04:45:16.395Z,0
2019-03-03T04:46:16.400Z,0
2019-03-03T04:47:15.879Z,0
2019-03-03T04:48:16.358Z,0
2019-03-03T04:49:16.339Z,0
2019-03-03T04:50:16.691Z,0
2019-03-03T04:51:16.319Z,0
2019-03-03T04:52:16.301Z,0
2019-03-03T04:53:16.282Z,0
2019-03-03T04:54:16.021Z,0
2019-03-03T04:55:16.257Z,0
2019-03-03T04:56:15.754Z,0
2019-03-03T04:57:16.234Z,0
2019-03-03T04:58:15.728Z,0
2019-03-03T04:59:16.206Z,0
2019-03-03T05:00:16.218Z,0
2019-03-03T05:01:16.179Z,0
2019-03-03T05:02:16.163Z,0
2019-03-03T05:03:15.650Z,0
2019-03-03T05:04:16.175Z,0
2019-03-03T05:05:16.270Z,0
2019-03-03T05:06:16.109Z,0
2019-03-03T05:07:15.854Z,0
2019-03-03T05:08:16.107Z,0
2019-03-03T05:09:16.073Z,0
2019-03-03T05:10:15.808Z,0
2019-03-03T05:11:15.811Z,0
2019-03-03T05:12:15.773Z,0
2019-03-03T05:13:15.755Z,0
2019-03-03T05:14:15.747Z,0
2019-03-03T05:15:15.742Z,0
2019-03-03T05:16:15.962Z,0
2019-03-03T05:17:18.201Z,0
2019-03-03T05:18:15.684Z,0
2019-03-03T05:19:15.913Z,0
2019-03-03T05:20:15.660Z,0
2019-03-03T05:21:15.886Z,0
2019-03-03T05:22:15.912Z,0
2019-03-03T05:23:15.621Z,0
2019-03-03T05:24:15.850Z,0
2019-03-03T05:25:16.002Z,0
2019-03-03T05:26:15.329Z,0
2019-03-03T05:27:15.811Z,0
2019-03-03T05:28:15.548Z,0
2019-03-03T05:29:15.772Z,0
2019-03-03T05:30:15.523Z,0
2019-03-03T05:31:15.757Z,0
2019-03-03T05:32:15.744Z,0
2019-03-03T05:33:15.716Z,0
2019-03-03T05:34:15.707Z,0
2019-03-03T05:35:15.440Z,0
2019-03-03T05:36:15.425Z,0
2019-03-03T05:37:15.439Z,0
2019-03-03T05:38:15.435Z,0
2019-03-03T05:39:15.631Z,0
2019-03-03T05:40:15.617Z,0
2019-03-03T05:41:15.612Z,0
2019-03-03T05:42:15.351Z,0
2019-03-03T05:43:15.572Z,0
2019-03-03T05:44:15.564Z,0
2019-03-03T05:45:15.296Z,0
2019-03-03T05:46:15.284Z,0
2019-03-03T05:47:15.515Z,0
2019-03-03T05:48:15.504Z,0
2019-03-03T05:49:15.486Z,0
2019-03-03T05:50:15.481Z,0
2019-03-03T05:51:15.219Z,0
2019-03-03T05:52:15.208Z,0
2019-03-03T05:53:15.184Z,5
2019-03-03T05:54:15.420Z,5
2019-03-03T05:55:15.402Z,5
2019-03-03T05:56:16.321Z,5
2019-03-03T05:57:15.132Z,5
2019-03-03T05:58:15.116Z,0
2019-03-03T05:59:15.347Z,5
2019-03-03T06:00:15.331Z,5
2019-03-03T06:01:15.325Z,5
2019-03-03T06:02:15.065Z,5
2019-03-03T06:03:15.074Z,0
2019-03-03T06:04:14.811Z,5
2019-03-03T06:05:15.262Z,5
2019-03-03T06:06:15.249Z,5
2019-03-03T06:07:15.235Z,5
2019-03-03T06:08:15.218Z,5
2019-03-03T06:09:15.213Z,5
2019-03-03T06:10:15.190Z,5
2019-03-03T06:11:15.179Z,10
2019-03-03T06:12:15.175Z,10
2019-03-03T06:13:15.149Z,10
2019-03-03T06:14:15.136Z,15
2019-03-03T06:15:14.963Z,15
2019-03-03T06:16:15.098Z,10
2019-03-03T06:17:14.599Z,15
2019-03-03T06:18:15.073Z,20
2019-03-03T06:19:14.828Z,15
2019-03-03T06:20:15.050Z,20
2019-03-03T06:21:14.783Z,25
2019-03-03T06:22:14.785Z,30
2019-03-03T06:23:14.769Z,35
2019-03-03T06:24:14.744Z,35
2019-03-03T06:25:14.992Z,45
2019-03-03T06:26:14.709Z,50
2019-03-03T06:27:14.700Z,50
2019-03-03T06:28:14.739Z,45
2019-03-03T06:29:14.673Z,35
2019-03-03T06:30:14.589Z,25
2019-03-03T06:31:14.892Z,25
2019-03-03T06:32:14.632Z,25
2019-03-03T06:33:14.621Z,25
2019-03-03T06:34:14.853Z,25
2019-03-03T06:35:14.588Z,30
2019-03-03T06:36:14.817Z,25
2019-03-03T06:37:14.558Z,25
2019-03-03T06:38:14.786Z,30
2019-03-03T06:39:14.768Z,25
2019-03-03T06:40:14.265Z,30
2019-03-03T06:41:14.259Z,30
2019-03-03T06:42:14.738Z,30
2019-03-03T06:43:14.729Z,35
2019-03-03T06:44:14.698Z,35
2019-03-03T06:45:14.722Z,40
2019-03-03T06:46:14.680Z,40
2019-03-03T06:47:14.672Z,45
2019-03-03T06:48:14.654Z,55
2019-03-03T06:49:14.638Z,55
2019-03-03T06:50:14.378Z,45
2019-03-03T06:51:14.607Z,60
2019-03-03T06:52:14.589Z,70
2019-03-03T06:53:14.587Z,55
2019-03-03T06:54:14.600Z,60
2019-03-03T06:55:14.307Z,70
2019-03-03T06:56:14.541Z,65
2019-03-03T06:57:14.532Z,75
2019-03-03T06:58:14.261Z,80
2019-03-03T06:59:14.483Z,85
2019-03-03T07:00:15.002Z,80
2019-03-03T07:01:14.465Z,105
2019-03-03T07:02:14.205Z,105
2019-03-03T07:03:14.436Z,110
2019-03-03T07:04:14.419Z,100
2019-03-03T07:05:14.414Z,100
2019-03-03T07:06:14.142Z,100
2019-03-03T07:07:14.373Z,90
2019-03-03T07:08:14.363Z,90
2019-03-03T07:09:13.859Z,85
2019-03-03T07:10:14.345Z,105
2019-03-03T07:11:14.925Z,115
2019-03-03T07:12:14.313Z,115
2019-03-03T07:13:14.053Z,125
2019-03-03T07:14:14.285Z,105
2019-03-03T07:15:14.266Z,95
2019-03-03T07:16:14.255Z,115
2019-03-03T07:17:14.239Z,110
2019-03-03T07:18:14.259Z,110
2019-03-03T07:19:14.235Z,110
2019-03-03T07:20:14.234Z,105
2019-03-03T07:21:13.936Z,95
2019-03-03T07:22:15.661Z,100
2019-03-03T07:23:13.919Z,105
2019-03-03T07:24:13.946Z,85
2019-03-03T07:25:14.135Z,80
2019-03-03T07:26:13.866Z,80
2019-03-03T07:27:14.248Z,100
2019-03-03T07:28:14.089Z,100
2019-03-03T07:29:14.129Z,100
2019-03-03T07:30:13.821Z,80
2019-03-03T07:31:14.057Z,95
2019-03-03T07:32:14.038Z,115
2019-03-03T07:33:13.782Z,115
2019-03-03T07:34:14.017Z,100
2019-03-03T07:35:13.990Z,110
2019-03-03T07:36:13.973Z,105
2019-03-03T07:37:13.973Z,105
2019-03-03T07:38:13.954Z,105
2019-03-03T07:39:13.954Z,110
2019-03-03T07:40:13.928Z,90
2019-03-03T07:41:13.913Z,80
2019-03-03T07:42:13.897Z,105
2019-03-03T07:43:13.893Z,120
2019-03-03T07:44:13.880Z,95
2019-03-03T07:45:14.148Z,95
2019-03-03T07:46:13.844Z,85
2019-03-03T07:47:13.993Z,85
2019-03-03T07:48:13.824Z,90
2019-03-03T07:49:13.820Z,105
2019-03-03T07:50:13.543Z,80
2019-03-03T07:51:13.542Z,70
2019-03-03T07:52:13.769Z,120
2019-03-03T07:53:13.267Z,125
2019-03-03T07:54:13.740Z,105
2019-03-03T07:55:13.725Z,100
2019-03-03T07:56:13.470Z,90
2019-03-03T07:57:13.450Z,70
2019-03-03T07:58:13.710Z,70
2019-03-03T07:59:13.674Z,70
2019-03-03T08:00:13.672Z,70
2019-03-03T08:01:13.649Z,70
2019-03-03T08:02:13.636Z,80
2019-03-03T08:03:13.635Z,85
2019-03-03T08:04:13.621Z,80
2019-03-03T08:05:13.633Z,85
2019-03-03T08:06:13.333Z,70
2019-03-03T08:07:13.577Z,70
2019-03-03T08:08:13.597Z,80
2019-03-03T08:09:13.308Z,65
2019-03-03T08:10:13.524Z,65
2019-03-03T08:11:13.268Z,65
2019-03-03T08:12:13.489Z,70
2019-03-03T08:13:18.677Z,85
2019-03-03T08:14:13.478Z,80
2019-03-03T08:15:13.231Z,80
2019-03-03T08:16:15.353Z,70
2019-03-03T08:17:13.434Z,75
2019-03-03T08:18:13.419Z,85
2019-03-03T08:19:13.405Z,80
2019-03-03T08:20:13.397Z,85
2019-03-03T08:21:13.130Z,80
2019-03-03T08:22:13.362Z,80
2019-03-03T08:23:13.349Z,80
2019-03-03T08:24:13.337Z,100
2019-03-03T08:25:13.327Z,95
2019-03-03T08:26:13.311Z,80
2019-03-03T08:27:13.054Z,85
2019-03-03T08:28:13.039Z,85
2019-03-03T08:29:13.269Z,105
2019-03-03T08:30:13.265Z,100
2019-03-03T08:31:13.246Z,100
2019-03-03T08:32:13.018Z,95
2019-03-03T08:33:12.971Z,100
2019-03-03T08:34:12.953Z,120
2019-03-03T08:35:13.184Z,115
2019-03-03T08:36:14.408Z,135
2019-03-03T08:37:12.919Z,125
2019-03-03T08:38:12.912Z,105
2019-03-03T08:39:13.133Z,110
2019-03-03T08:40:12.634Z,110
2019-03-03T08:41:13.114Z,125
2019-03-03T08:42:12.857Z,140
2019-03-03T08:43:13.544Z,125
2019-03-03T08:44:12.841Z,125
2019-03-03T08:45:13.068Z,120
2019-03-03T08:46:13.051Z,130
2019-03-03T08:47:12.789Z,165
2019-03-03T08:48:13.024Z,165
2019-03-03T08:49:13.059Z,160
2019-03-03T08:50:12.998Z,125
2019-03-03T08:51:12.983Z,125
2019-03-03T08:52:13.015Z,105
2019-03-03T08:53:12.718Z,110
2019-03-03T08:54:12.946Z,115
2019-03-03T08:55:12.686Z,110
2019-03-03T08:56:12.921Z,100
2019-03-03T08:57:12.942Z,105
2019-03-03T08:58:12.884Z,120
2019-03-03T08:59:12.870Z,100
2019-03-03T09:00:12.614Z,95
2019-03-03T09:01:12.844Z,95
2019-03-03T09:02:12.836Z,85
2019-03-03T09:03:12.622Z,80
2019-03-03T09:04:12.805Z,100
2019-03-03T09:05:12.795Z,95
2019-03-03T09:06:12.546Z,100
2019-03-03T09:07:12.566Z,90
2019-03-03T09:08:12.753Z,85
2019-03-03T09:09:12.741Z,80
2019-03-03T09:10:12.724Z,95
2019-03-03T09:11:12.467Z,95
2019-03-03T09:12:12.458Z,90
2019-03-03T09:13:12.684Z,75
2019-03-03T09:14:12.725Z,80
2019-03-03T09:15:12.414Z,75
2019-03-03T09:16:12.653Z,80
2019-03-03T09:17:12.399Z,80
2019-03-03T09:18:12.373Z,80
2019-03-03T09:19:12.605Z,100
2019-03-03T09:20:12.602Z,110
2019-03-03T09:21:12.591Z,100
2019-03-03T09:22:14.241Z,100
2019-03-03T09:23:12.573Z,100
2019-03-03T09:24:12.587Z,110
2019-03-03T09:25:12.538Z,115
2019-03-03T09:26:12.523Z,110
2019-03-03T09:27:12.563Z,95
2019-03-03T09:28:12.503Z,110
2019-03-03T09:29:12.487Z,95
2019-03-03T09:30:12.461Z,100
2019-03-03T09:31:12.450Z,85
2019-03-03T09:32:12.444Z,90
2019-03-03T09:33:12.576Z,85
2019-03-03T09:34:12.429Z,90
2019-03-03T09:35:12.403Z,95
2019-03-03T09:36:12.397Z,95
2019-03-03T09:37:12.402Z,95
2019-03-03T09:38:12.360Z,95
2019-03-03T09:39:12.502Z,105
2019-03-03T09:40:18.726Z,105
2019-03-03T09:41:12.079Z,110
2019-03-03T09:42:12.064Z,100
2019-03-03T09:43:12.303Z,110
2019-03-03T09:44:12.955Z,105
2019-03-03T09:45:12.278Z,85
2019-03-03T09:46:12.255Z,100
2019-03-03T09:47:12.245Z,100
2019-03-03T09:48:11.986Z,100
2019-03-03T09:49:12.240Z,110
2019-03-03T09:50:11.967Z,125
2019-03-03T09:51:11.952Z,120
2019-03-03T09:52:12.192Z,135
2019-03-03T09:53:12.171Z,140
2019-03-03T09:54:12.157Z,135
2019-03-03T09:55:11.888Z,145
2019-03-03T09:56:12.146Z,150
2019-03-03T09:57:12.127Z,195
2019-03-03T09:58:12.202Z,160
2019-03-03T09:59:12.095Z,220
2019-03-03T10:00:12.085Z,180
2019-03-03T10:01:12.059Z,145
2019-03-03T10:02:11.799Z,165
2019-03-03T10:03:11.813Z,165
2019-03-03T10:04:11.784Z,175
2019-03-03T10:05:12.006Z,160
2019-03-03T10:06:12.001Z,165
2019-03-03T10:07:13.603Z,160
2019-03-03T10:08:11.477Z,160
2019-03-03T10:09:11.968Z,175
2019-03-03T10:10:11.967Z,205
2019-03-03T10:11:11.939Z,205
2019-03-03T10:12:11.677Z,205
2019-03-03T10:13:11.918Z,180
2019-03-03T10:14:11.894Z,185
2019-03-03T10:15:11.467Z,225
2019-03-03T10:16:11.870Z,175
2019-03-03T10:17:11.608Z,200
2019-03-03T10:18:11.857Z,240
2019-03-03T10:19:16.883Z,250
2019-03-03T10:20:11.823Z,240
2019-03-03T10:21:12.248Z,265
2019-03-03T10:22:11.794Z,295
2019-03-03T10:23:11.930Z,280
2019-03-03T10:24:11.774Z,265
2019-03-03T10:25:11.763Z,265
2019-03-03T10:26:11.780Z,210
2019-03-03T10:27:11.743Z,210
2019-03-03T10:28:11.760Z,215
2019-03-03T10:29:11.716Z,200
2019-03-03T10:30:11.450Z,195
2019-03-03T10:31:11.687Z,160
2019-03-03T10:32:11.683Z,165
2019-03-03T10:33:11.410Z,180
2019-03-03T10:34:11.660Z,180
2019-03-03T10:35:11.638Z,170
2019-03-03T10:36:11.631Z,160
2019-03-03T10:37:11.379Z,190
2019-03-03T10:38:11.604Z,175
2019-03-03T10:39:11.632Z,170
2019-03-03T10:40:11.581Z,205
2019-03-03T10:41:11.325Z,230
2019-03-03T10:42:11.318Z,235
2019-03-03T10:43:11.292Z,215
2019-03-03T10:44:11.530Z,210
2019-03-03T10:45:11.527Z,190
2019-03-03T10:46:11.523Z,205
2019-03-03T10:47:11.486Z,185
2019-03-03T10:48:11.232Z,205
2019-03-03T10:49:11.233Z,245
2019-03-03T10:50:11.468Z,250
2019-03-03T10:51:11.438Z,240
2019-03-03T10:52:11.185Z,225
2019-03-03T10:53:11.427Z,200
2019-03-03T10:54:11.402Z,230
2019-03-03T10:55:11.407Z,225
2019-03-03T10:56:11.380Z,210
2019-03-03T10:57:11.404Z,250
2019-03-03T10:58:11.114Z,265
2019-03-03T10:59:11.104Z,270
2019-03-03T11:00:11.338Z,220
2019-03-03T11:01:11.082Z,195
2019-03-03T11:02:11.357Z,195
2019-03-03T11:03:12.141Z,170
2019-03-03T11:04:11.036Z,175
2019-03-03T11:05:11.281Z,175
2019-03-03T11:06:11.264Z,200
2019-03-03T11:07:11.251Z,190
2019-03-03T11:08:12.612Z,250
2019-03-03T11:09:11.228Z,235
2019-03-03T11:10:11.226Z,210
2019-03-03T11:11:11.202Z,205
2019-03-03T11:12:11.191Z,200
2019-03-03T11:13:11.176Z,195
2019-03-03T11:14:11.685Z,150
2019-03-03T11:15:20.562Z,150
2019-03-03T11:16:11.142Z,130
2019-03-03T11:17:11.139Z,135
2019-03-03T11:18:10.871Z,130
2019-03-03T11:19:11.167Z,145
2019-03-03T11:20:11.104Z,130
2019-03-03T11:21:11.088Z,145
2019-03-03T11:22:11.074Z,135
2019-03-03T11:23:10.831Z,145
2019-03-03T11:24:10.802Z,145
2019-03-03T11:25:10.828Z,130
2019-03-03T11:26:11.031Z,120
2019-03-03T11:27:10.812Z,110
2019-03-03T11:28:11.006Z,110
2019-03-03T11:29:10.990Z,110
2019-03-03T11:30:10.988Z,105
2019-03-03T11:31:10.722Z,100
2019-03-03T11:32:10.971Z,100
2019-03-03T11:33:10.694Z,90
2019-03-03T11:34:10.936Z,95
2019-03-03T11:35:10.914Z,80
2019-03-03T11:36:10.902Z,95
2019-03-03T11:37:10.659Z,85
2019-03-03T11:38:10.894Z,80
2019-03-03T11:39:10.874Z,75
2019-03-03T11:40:10.857Z,75
2019-03-03T11:41:10.858Z,75
2019-03-03T11:42:10.384Z,75
2019-03-03T11:43:10.338Z,75
2019-03-03T11:44:10.815Z,75
2019-03-03T11:45:10.792Z,75
2019-03-03T11:46:11.385Z,75
2019-03-03T11:47:10.788Z,75
2019-03-03T11:48:13.990Z,75
2019-03-03T11:49:10.756Z,80
2019-03-03T11:50:10.768Z,80
2019-03-03T11:51:10.728Z,75
2019-03-03T11:52:10.716Z,80
2019-03-03T11:53:10.452Z,80
2019-03-03T11:54:10.695Z,90
2019-03-03T11:55:10.546Z,100
2019-03-03T11:56:10.430Z,90
2019-03-03T11:57:10.655Z,90
2019-03-03T11:58:10.636Z,85
2019-03-03T11:59:10.631Z,90
2019-03-03T12:00:12.353Z,80
2019-03-03T12:01:10.360Z,80
2019-03-03T12:02:10.590Z,90
2019-03-03T12:03:11.931Z,95
2019-03-03T12:04:10.312Z,100
2019-03-03T12:05:10.304Z,105
2019-03-03T12:06:10.540Z,95
2019-03-03T12:07:10.527Z,90
2019-03-03T12:08:10.333Z,80
2019-03-03T12:09:10.506Z,85
2019-03-03T12:10:10.488Z,80
2019-03-03T12:11:10.489Z,95
2019-03-03T12:12:10.467Z,90
2019-03-03T12:13:10.450Z,95
2019-03-03T12:14:10.449Z,85
2019-03-03T12:15:10.185Z,90
2019-03-03T12:16:10.422Z,90
2019-03-03T12:17:10.155Z,90
2019-03-03T12:18:10.402Z,75
2019-03-03T12:19:11.036Z,75
2019-03-03T12:20:10.365Z,75
2019-03-03T12:21:10.385Z,75
2019-03-03T12:22:10.343Z,85
2019-03-03T12:23:10.338Z,75
2019-03-03T12:24:10.316Z,75
2019-03-03T12:25:10.310Z,85
2019-03-03T12:26:10.046Z,75
2019-03-03T12:27:10.036Z,70
2019-03-03T12:28:10.279Z,80
2019-03-03T12:29:11.714Z,75
2019-03-03T12:30:10.009Z,75
2019-03-03T12:31:10.225Z,75
2019-03-03T12:32:10.269Z,80
2019-03-03T12:33:09.977Z,80
2019-03-03T12:34:09.949Z,70
2019-03-03T12:35:10.186Z,80
2019-03-03T12:36:12.191Z,80
2019-03-03T12:37:10.159Z,95
2019-03-03T12:38:10.152Z,105
2019-03-03T12:39:10.134Z,100
2019-03-03T12:40:10.121Z,90
2019-03-03T12:41:10.106Z,85
2019-03-03T12:42:10.864Z,110
2019-03-03T12:43:10.083Z,90
2019-03-03T12:44:10.079Z,100
2019-03-03T12:45:09.572Z,100
2019-03-03T12:46:10.061Z,110
2019-03-03T12:47:10.049Z,75
2019-03-03T12:48:09.777Z,85
2019-03-03T12:49:09.764Z,90
2019-03-03T12:50:09.759Z,75
2019-03-03T12:51:09.985Z,90
2019-03-03T12:52:09.987Z,100
2019-03-03T12:53:09.956Z,100
2019-03-03T12:54:09.706Z,90
2019-03-03T12:55:09.939Z,110
2019-03-03T12:56:09.941Z,100
2019-03-03T12:57:09.916Z,95
2019-03-03T12:58:09.906Z,125
2019-03-03T12:59:09.637Z,135
2019-03-03T13:00:11.448Z,125
2019-03-03T13:01:09.863Z,125
2019-03-03T13:02:09.612Z,125
2019-03-03T13:03:09.840Z,125
2019-03-03T13:04:09.340Z,130
2019-03-03T13:05:09.848Z,130
2019-03-03T13:06:09.807Z,140
2019-03-03T13:07:09.815Z,120
2019-03-03T13:08:09.779Z,115
2019-03-03T13:09:09.532Z,110
2019-03-03T13:10:09.775Z,95
2019-03-03T13:11:09.498Z,75
2019-03-03T13:12:09.489Z,75
2019-03-03T13:13:09.724Z,90
2019-03-03T13:14:09.705Z,90
2019-03-03T13:15:09.759Z,110
2019-03-03T13:16:09.689Z,125
2019-03-03T13:17:09.669Z,140
2019-03-03T13:18:09.418Z,135
2019-03-03T13:19:09.653Z,155
2019-03-03T13:20:09.745Z,215
2019-03-03T13:21:09.379Z,220
2019-03-03T13:22:09.610Z,235
2019-03-03T13:23:09.600Z,285
2019-03-03T13:24:09.594Z,290
2019-03-03T13:25:09.749Z,260
2019-03-03T13:26:09.573Z,275
2019-03-03T13:27:09.565Z,280
2019-03-03T13:28:09.538Z,230
2019-03-03T13:29:09.280Z,175
2019-03-03T13:30:09.584Z,150
2019-03-03T13:31:09.257Z,150
2019-03-03T13:32:09.509Z,165
2019-03-03T13:33:09.239Z,165
2019-03-03T13:34:09.479Z,170
2019-03-03T13:35:09.459Z,170
2019-03-03T13:36:09.501Z,140
2019-03-03T13:37:10.818Z,125
2019-03-03T13:38:09.431Z,115
2019-03-03T13:39:09.182Z,110
2019-03-03T13:40:09.406Z,100
2019-03-03T13:41:09.392Z,85
2019-03-03T13:42:09.136Z,80
2019-03-03T13:43:09.373Z,80
2019-03-03T13:44:09.110Z,85
2019-03-03T13:45:08.904Z,85
2019-03-03T13:46:09.093Z,90
2019-03-03T13:47:09.330Z,80
2019-03-03T13:48:09.321Z,90
2019-03-03T13:49:09.305Z,85
2019-03-03T13:50:09.285Z,80
2019-03-03T13:51:09.034Z,75
2019-03-03T13:52:09.264Z,75
2019-03-03T13:53:09.009Z,70
2019-03-03T13:54:11.343Z,70
2019-03-03T13:55:09.234Z,70
2019-03-03T13:56:09.218Z,65
2019-03-03T13:57:08.721Z,65
2019-03-03T13:58:08.944Z,75
2019-03-03T13:59:09.181Z,80
2019-03-03T14:00:09.169Z,80
2019-03-03T14:01:08.919Z,90
2019-03-03T14:02:09.147Z,90
2019-03-03T14:03:08.894Z,110
2019-03-03T14:04:09.124Z,120
2019-03-03T14:05:09.107Z,115
2019-03-03T14:06:08.858Z,110
2019-03-03T14:07:08.839Z,100
2019-03-03T14:08:09.082Z,100
2019-03-03T14:09:09.070Z,95
2019-03-03T14:10:09.049Z,90
2019-03-03T14:11:09.049Z,95
2019-03-03T14:12:09.029Z,115
2019-03-03T14:13:09.013Z,125
2019-03-03T14:14:09.024Z,135
2019-03-03T14:15:08.758Z,125
2019-03-03T14:16:08.739Z,120
2019-03-03T14:17:08.976Z,110
2019-03-03T14:18:08.962Z,120
2019-03-03T14:19:08.958Z,105